KMIE/MIE METAR and TAF weather

Enter ICAO airport designator
Station Type Date Time Source
KMIE METAR 2021/09/25 12:53 UTC NOAA

KMIE 251253Z 27022KT 10SM OVC007 14/12 A3001 RMK AO2 RAE22 CIG 006V011 SLP157 P0014 T01390117


Station Type Date Time Source
KMIE Decoded METAR 2021/09/25 12:53 UTC NOAA

MUNCIE DELAWARE JOHNSON, IN, United States (KMIE) 40-14N 85-24W 285M
Sep 25, 2021 - 08:53 AM EDT / 2021.09.25 1253 UTC
Wind: from the W (270 degrees) at 25 MPH (22 KT):0
Visibility: 10 mile(s):0
Sky conditions: overcast
Precipitation last hour: 0.14 inches
Temperature: 57.0 F (13.9 C)
Dew Point: 53.1 F (11.7 C)
Relative Humidity: 86%
Pressure (altimeter): 30.01 in. Hg (1016 hPa)
ob: KMIE 251253Z 27022KT 10SM OVC007 14/12 A3001 RMK AO2 RAE22 CIG 006V011 SLP157 P0014 T01390117
cycle: 13

Station Type Date Time Source
KMIE TAF UTC NOAA

Error!

Example: see airport list